createdAt,value
2019-04-03T00:00:58.221Z,23.53
2019-04-03T00:03:28.092Z,21.93
2019-04-03T00:05:57.827Z,31.80
2019-04-03T00:08:27.590Z,33.97
2019-04-03T00:10:57.328Z,27.83
2019-04-03T00:13:27.184Z,26.33
2019-04-03T00:15:57.044Z,23.43
2019-04-03T00:18:26.804Z,21.67
2019-04-03T00:20:56.569Z,25.10
2019-04-03T00:23:26.441Z,20.13
2019-04-03T00:25:56.166Z,20.53
2019-04-03T00:28:26.037Z,24.10
2019-04-03T00:30:55.870Z,19.47
2019-04-03T00:33:25.730Z,21.40
2019-04-03T00:35:55.558Z,20.50
2019-04-03T00:38:25.296Z,21.93
2019-04-03T00:40:55.116Z,22.53
2019-04-03T00:43:25.332Z,24.00
2019-04-03T00:45:55.389Z,22.10
2019-04-03T00:48:25.913Z,22.70
2019-04-03T00:50:57.305Z,23.63
2019-04-03T00:53:28.218Z,27.70
2019-04-03T00:55:58.193Z,24.80
2019-04-03T00:58:35.558Z,28.33
2019-04-03T01:01:07.241Z,24.63
2019-04-03T01:03:37.104Z,25.13
2019-04-03T01:06:06.863Z,23.40
2019-04-03T01:08:36.622Z,20.57
2019-04-03T01:11:06.389Z,24.77
2019-04-03T01:13:36.269Z,21.20
2019-04-03T01:16:06.394Z,19.27
2019-04-03T01:18:37.626Z,23.93
2019-04-03T01:21:08.462Z,24.63
2019-04-03T01:23:38.324Z,29.30
2019-04-03T01:26:10.073Z,20.97
2019-04-03T01:28:41.353Z,26.10
2019-04-03T01:31:10.921Z,34.63
2019-04-03T01:33:40.707Z,47.40
2019-04-03T01:36:10.586Z,27.23
2019-04-03T01:38:40.613Z,22.87
2019-04-03T01:41:10.563Z,25.50
2019-04-03T01:43:40.375Z,20.80
2019-04-03T01:46:10.109Z,21.33
2019-04-03T01:48:39.864Z,24.07
2019-04-03T01:51:09.730Z,25.63
2019-04-03T01:53:39.508Z,25.30
2019-04-03T01:56:09.272Z,24.97
2019-04-03T01:58:39.162Z,23.77
2019-04-03T02:01:08.992Z,28.90
2019-04-03T02:03:41.193Z,27.40
2019-04-03T02:06:10.330Z,24.80
2019-04-03T02:08:40.065Z,26.63
2019-04-03T02:11:09.819Z,30.63
2019-04-03T02:13:39.540Z,23.90
2019-04-03T02:16:09.533Z,29.20
2019-04-03T02:18:39.263Z,23.10
2019-04-03T02:21:09.029Z,28.27
2019-04-03T02:23:38.856Z,23.90
2019-04-03T02:26:08.931Z,26.30
2019-04-03T02:28:38.763Z,27.93
2019-04-03T02:31:08.610Z,32.40
2019-04-03T02:33:38.569Z,30.20
2019-04-03T02:36:11.438Z,25.80
2019-04-03T02:38:39.897Z,26.43
2019-04-03T02:41:09.660Z,29.40
2019-04-03T02:43:39.392Z,26.40
2019-04-03T02:46:09.294Z,22.00
2019-04-03T02:48:39.192Z,25.37
2019-04-03T02:51:09.065Z,25.17
2019-04-03T02:53:38.815Z,24.43
2019-04-03T02:56:11.572Z,25.57
2019-04-03T02:58:40.271Z,46.70
2019-04-03T03:01:10.037Z,44.23
2019-04-03T03:03:39.767Z,32.70
2019-04-03T03:06:09.832Z,25.40
2019-04-03T03:08:41.653Z,28.43
2019-04-03T03:11:11.127Z,31.93
2019-04-03T03:13:41.090Z,25.77
2019-04-03T03:16:11.017Z,26.80
2019-04-03T03:18:41.080Z,30.60
2019-04-03T03:21:12.734Z,27.50
2019-04-03T03:23:42.317Z,25.00
2019-04-03T03:26:12.106Z,22.30
2019-04-03T03:28:45.882Z,27.20
2019-04-03T03:31:14.251Z,24.67
2019-04-03T03:33:44.403Z,22.23
2019-04-03T03:36:19.577Z,27.70
2019-04-03T03:38:45.741Z,26.63
2019-04-03T03:41:15.469Z,25.50
2019-04-03T03:43:45.418Z,26.73
2019-04-03T03:46:15.520Z,22.40
2019-04-03T03:48:45.808Z,22.90
2019-04-03T03:51:15.834Z,30.80
2019-04-03T03:53:46.124Z,27.80
2019-04-03T03:56:17.744Z,33.43
2019-04-03T03:58:48.900Z,32.13
2019-04-03T04:01:19.566Z,30.03
2019-04-03T04:03:49.378Z,29.33
2019-04-03T04:06:19.291Z,27.97
2019-04-03T04:08:49.210Z,25.80
2019-04-03T04:11:18.944Z,32.43
2019-04-03T04:13:49.759Z,42.23
2019-04-03T04:16:20.158Z,36.93
2019-04-03T04:18:50.212Z,49.90
2019-04-03T04:21:20.031Z,50.27
2019-04-03T04:23:49.930Z,56.63
2019-04-03T04:26:19.808Z,52.23
2019-04-03T04:28:49.852Z,54.17
2019-04-03T04:31:19.695Z,40.53
2019-04-03T04:33:49.616Z,33.57
2019-04-03T04:36:19.469Z,94.13
2019-04-03T04:38:49.243Z,498.67
2019-04-03T04:41:19.181Z,380.07
2019-04-03T04:43:49.067Z,157.17
2019-04-03T04:46:18.903Z,223.70
2019-04-03T04:48:50.967Z,145.77
2019-04-03T04:51:20.542Z,107.50
2019-04-03T04:53:50.353Z,58.27
2019-04-03T04:56:20.196Z,436.53
2019-04-03T04:58:49.960Z,101.03
2019-04-03T05:01:19.895Z,113.27
2019-04-03T05:03:49.742Z,166.50
2019-04-03T05:06:19.489Z,567.57
2019-04-03T05:08:49.365Z,307.57
2019-04-03T05:11:19.111Z,543.27
2019-04-03T05:13:49.060Z,1366.70
2019-04-03T05:16:20.474Z,802.70
2019-04-03T05:18:50.459Z,1108.30
2019-04-03T05:21:21.751Z,1368.37
2019-04-03T05:23:51.878Z,643.07
2019-04-03T05:26:21.892Z,149.57
2019-04-03T05:28:55.885Z,48.43
2019-04-03T05:31:23.346Z,45.37
2019-04-03T05:33:53.179Z,38.27
2019-04-03T05:36:23.042Z,139.30
2019-04-03T05:38:53.864Z,168.70
2019-04-03T05:41:24.138Z,67.17
2019-04-03T05:43:53.902Z,31.73
2019-04-03T05:46:23.714Z,157.73
2019-04-03T05:48:53.499Z,201.53
2019-04-03T05:51:23.234Z,41.27
2019-04-03T05:53:54.160Z,42.90
2019-04-03T05:56:24.328Z,29.53
2019-04-03T05:58:56.930Z,43.17
2019-04-03T06:01:25.537Z,27.33
2019-04-03T06:03:55.398Z,30.47
2019-04-03T06:06:25.212Z,44.60
2019-04-03T06:08:56.499Z,52.70
2019-04-03T06:11:26.452Z,64.43
2019-04-03T06:13:56.360Z,118.37
2019-04-03T06:16:26.447Z,23.37
2019-04-03T06:18:56.999Z,30.00
2019-04-03T06:21:28.039Z,25.43
2019-04-03T06:23:57.895Z,27.83
2019-04-03T06:26:27.632Z,29.77
2019-04-03T06:28:57.565Z,27.13
2019-04-03T06:31:27.744Z,33.40
2019-04-03T06:33:57.690Z,23.00
2019-04-03T06:36:27.551Z,23.27
2019-04-03T06:38:57.730Z,27.80
2019-04-03T06:41:27.685Z,28.80
2019-04-03T06:43:57.599Z,35.23
2019-04-03T06:46:29.103Z,25.40
2019-04-03T06:48:59.140Z,18.90
2019-04-03T06:51:29.017Z,34.00
2019-04-03T06:53:59.893Z,32.00
2019-04-03T06:56:29.878Z,26.83
2019-04-03T06:58:59.680Z,33.97
2019-04-03T07:01:29.536Z,25.10
2019-04-03T07:03:59.899Z,26.20
2019-04-03T07:06:29.668Z,36.97
2019-04-03T07:08:59.569Z,25.07
2019-04-03T07:11:29.340Z,22.67
2019-04-03T07:13:59.140Z,24.60
2019-04-03T07:16:29.221Z,27.53
2019-04-03T07:18:59.082Z,29.40
2019-04-03T07:21:29.049Z,24.27
2019-04-03T07:24:00.680Z,25.70
2019-04-03T07:26:30.771Z,26.80
2019-04-03T07:29:00.519Z,30.73
2019-04-03T07:31:30.683Z,18.90
2019-04-03T07:34:03.204Z,24.77
2019-04-03T07:36:32.227Z,27.63
2019-04-03T07:39:02.065Z,23.60
2019-04-03T07:41:31.830Z,24.13
2019-04-03T07:44:01.733Z,25.23
2019-04-03T07:46:33.255Z,29.50
2019-04-03T07:49:03.045Z,26.73
2019-04-03T07:51:32.887Z,31.63
2019-04-03T07:54:04.763Z,27.73
2019-04-03T07:56:34.309Z,24.43
2019-04-03T07:59:04.295Z,27.13
2019-04-03T08:01:34.059Z,25.27
2019-04-03T08:04:03.818Z,29.90
2019-04-03T08:06:35.815Z,21.27
2019-04-03T08:09:09.671Z,21.97
2019-04-03T08:11:39.451Z,28.67
2019-04-03T08:14:09.955Z,31.27
2019-04-03T08:16:42.206Z,26.93
2019-04-03T08:19:11.362Z,27.87
2019-04-03T08:21:41.349Z,27.07
2019-04-03T08:24:11.965Z,26.77
2019-04-03T08:26:41.769Z,26.50
2019-04-03T08:29:11.571Z,29.00
2019-04-03T08:31:43.908Z,20.60
2019-04-03T08:34:16.675Z,22.33
2019-04-03T08:36:44.460Z,23.17
2019-04-03T08:39:16.068Z,24.33
2019-04-03T08:41:45.772Z,22.97
2019-04-03T08:44:16.099Z,20.07
2019-04-03T08:46:46.414Z,27.43
2019-04-03T08:49:16.293Z,27.80
2019-04-03T08:51:46.121Z,26.87
2019-04-03T08:54:16.101Z,26.07
2019-04-03T08:56:48.309Z,28.07
2019-04-03T08:59:17.630Z,22.03
2019-04-03T09:01:47.471Z,27.40
2019-04-03T09:04:17.958Z,22.93
2019-04-03T09:06:48.018Z,22.43
2019-04-03T09:09:17.936Z,24.47
2019-04-03T09:11:47.947Z,24.27
2019-04-03T09:14:19.462Z,26.23
2019-04-03T09:16:49.353Z,23.63
2019-04-03T09:19:19.135Z,22.00
2019-04-03T09:21:51.158Z,20.73
2019-04-03T09:24:20.630Z,29.97
2019-04-03T09:26:50.523Z,20.30
2019-04-03T09:29:20.295Z,21.23
2019-04-03T09:31:51.474Z,23.73
2019-04-03T09:34:21.867Z,24.30
2019-04-03T09:36:52.028Z,19.07
2019-04-03T09:39:21.841Z,26.70
2019-04-03T09:41:51.701Z,21.60
2019-04-03T09:44:24.506Z,32.07
2019-04-03T09:46:53.173Z,23.87
2019-04-03T09:49:23.271Z,19.80
2019-04-03T09:51:53.311Z,20.00
2019-04-03T09:54:24.011Z,20.37
2019-04-03T09:57:01.194Z,21.00
2019-04-03T09:59:25.616Z,24.50
2019-04-03T10:01:55.954Z,17.80
2019-04-03T10:04:26.787Z,27.63
2019-04-03T10:06:57.213Z,25.27
2019-04-03T10:09:27.648Z,23.90
2019-04-03T10:11:57.606Z,24.07
2019-04-03T10:14:28.943Z,21.27
2019-04-03T10:16:59.384Z,22.93
2019-04-03T10:19:29.284Z,26.20
2019-04-03T10:21:59.153Z,20.17
2019-04-03T10:24:31.070Z,28.60
2019-04-03T10:27:00.582Z,24.23
2019-04-03T10:29:30.484Z,29.03
2019-04-03T10:32:00.490Z,30.83
2019-04-03T10:34:30.421Z,30.37
2019-04-03T10:37:00.316Z,22.33
2019-04-03T10:39:30.315Z,28.10
2019-04-03T10:42:00.754Z,26.47
2019-04-03T10:44:31.171Z,19.03
2019-04-03T10:47:01.040Z,24.87
2019-04-03T10:49:32.475Z,32.13
2019-04-03T10:52:02.903Z,24.30
2019-04-03T10:54:32.835Z,31.10
2019-04-03T10:57:03.451Z,21.97
2019-04-03T10:59:33.820Z,32.23
2019-04-03T11:02:03.600Z,25.07
2019-04-03T11:04:33.505Z,29.60
2019-04-03T11:07:03.312Z,22.43
2019-04-03T11:09:33.448Z,22.60
2019-04-03T11:12:03.306Z,25.70
2019-04-03T11:14:33.173Z,23.10
2019-04-03T11:17:03.053Z,26.77
2019-04-03T11:19:33.201Z,25.67
2019-04-03T11:22:03.023Z,24.93
2019-04-03T11:24:32.881Z,32.33
2019-04-03T11:27:02.742Z,33.70
2019-04-03T11:29:33.635Z,56.53
2019-04-03T11:32:03.402Z,23.00
2019-04-03T11:34:33.253Z,25.80
2019-04-03T11:37:03.285Z,35.20
2019-04-03T11:39:33.174Z,26.63
2019-04-03T11:42:03.068Z,24.73
2019-04-03T11:44:32.927Z,27.73
2019-04-03T11:47:02.696Z,27.20
2019-04-03T11:49:32.565Z,35.00
2019-04-03T11:52:02.335Z,32.77
2019-04-03T11:54:32.208Z,30.10
2019-04-03T11:57:02.178Z,25.63
2019-04-03T11:59:32.068Z,25.07
2019-04-03T12:02:01.931Z,26.93
2019-04-03T12:04:31.698Z,27.83
2019-04-03T12:07:01.831Z,25.50
2019-04-03T12:09:32.465Z,26.33
2019-04-03T12:12:02.833Z,24.27
2019-04-03T12:14:32.792Z,38.07
2019-04-03T12:17:02.656Z,27.87
2019-04-03T12:19:32.661Z,25.50
2019-04-03T12:22:02.402Z,19.70
2019-04-03T12:24:32.602Z,24.97
2019-04-03T12:27:02.786Z,36.13
2019-04-03T12:29:32.657Z,32.47
2019-04-03T12:32:03.515Z,32.37
2019-04-03T12:34:36.733Z,36.73
2019-04-03T12:37:05.482Z,31.67
2019-04-03T12:39:35.300Z,28.20
2019-04-03T12:42:05.137Z,47.97
2019-04-03T12:44:35.035Z,29.47
2019-04-03T12:47:06.926Z,32.80
2019-04-03T12:49:36.346Z,25.60
2019-04-03T12:52:06.287Z,25.40
2019-04-03T12:54:38.063Z,21.77
2019-04-03T12:57:08.077Z,26.50
2019-04-03T12:59:39.816Z,33.00
2019-04-03T13:02:09.430Z,30.97
2019-04-03T13:04:39.325Z,28.20
2019-04-03T13:07:09.154Z,27.10
2019-04-03T13:09:39.109Z,31.27
2019-04-03T13:12:08.890Z,28.57
2019-04-03T13:14:38.657Z,34.40
2019-04-03T13:17:08.529Z,39.40
2019-04-03T13:19:38.643Z,29.77
2019-04-03T13:22:10.272Z,25.83
2019-04-03T13:24:40.459Z,23.47
2019-04-03T13:27:10.407Z,20.43
2019-04-03T13:29:40.907Z,37.33
2019-04-03T13:32:11.063Z,33.80
2019-04-03T13:34:42.675Z,23.77
2019-04-03T13:37:12.484Z,24.83
2019-04-03T13:39:42.377Z,28.37
2019-04-03T13:42:13.882Z,23.07
2019-04-03T13:44:43.987Z,24.93
2019-04-03T13:47:13.778Z,27.63
2019-04-03T13:49:43.677Z,31.07
2019-04-03T13:52:13.413Z,26.23
2019-04-03T13:54:45.289Z,51.57
2019-04-03T13:57:16.006Z,26.30
2019-04-03T13:59:46.117Z,35.33
2019-04-03T14:02:15.838Z,26.70
2019-04-03T14:04:48.347Z,27.17
2019-04-03T14:07:17.111Z,28.07
2019-04-03T14:09:50.652Z,24.43
2019-04-03T14:12:18.498Z,26.00
2019-04-03T14:14:48.663Z,26.07
2019-04-03T14:17:18.964Z,40.43
2019-04-03T14:19:51.512Z,26.97
2019-04-03T14:22:20.545Z,45.33
2019-04-03T14:24:52.539Z,28.17
2019-04-03T14:27:26.578Z,62.63
2019-04-03T14:29:53.501Z,25.17
2019-04-03T14:32:23.232Z,28.50
2019-04-03T14:35:04.132Z,24.67
2019-04-03T14:37:26.198Z,25.30
2019-04-03T14:39:56.176Z,33.47
2019-04-03T14:42:27.270Z,25.00
2019-04-03T14:44:57.288Z,33.57
2019-04-03T14:47:28.352Z,25.60
2019-04-03T14:49:58.678Z,25.47
2019-04-03T14:52:28.424Z,24.43
2019-04-03T14:55:04.836Z,28.40
2019-04-03T14:57:30.134Z,32.83
2019-04-03T15:00:02.040Z,25.97
2019-04-03T15:02:31.487Z,32.67
2019-04-03T15:05:01.248Z,25.33
2019-04-03T15:07:31.084Z,31.10
2019-04-03T15:10:01.219Z,36.87
2019-04-03T15:12:31.227Z,38.10
2019-04-03T15:15:01.457Z,25.83
2019-04-03T15:17:31.587Z,27.40
2019-04-03T15:20:01.641Z,22.63
2019-04-03T15:22:32.803Z,22.70
2019-04-03T15:25:03.104Z,20.17
2019-04-03T15:27:32.935Z,26.33
2019-04-03T15:30:02.798Z,21.17
2019-04-03T15:32:33.127Z,25.80
2019-04-03T15:35:03.144Z,28.90
2019-04-03T15:37:32.978Z,27.13
2019-04-03T15:40:03.454Z,22.03
2019-04-03T15:42:33.525Z,24.37
2019-04-03T15:45:03.303Z,24.23
2019-04-03T15:47:38.567Z,51.13
2019-04-03T15:50:06.387Z,41.67
2019-04-03T15:52:36.141Z,45.90
2019-04-03T15:55:08.519Z,28.60
2019-04-03T15:57:40.008Z,22.80
2019-04-03T16:00:14.846Z,27.00
2019-04-03T16:02:46.400Z,30.43
2019-04-03T16:05:16.649Z,29.73
2019-04-03T16:07:46.465Z,23.93
2019-04-03T16:10:16.299Z,21.93
2019-04-03T16:12:46.606Z,24.20
2019-04-03T16:15:16.526Z,23.40
2019-04-03T16:17:46.468Z,32.33
2019-04-03T16:20:17.620Z,25.53
2019-04-03T16:22:47.612Z,26.00
2019-04-03T16:25:17.997Z,27.20
2019-04-03T16:27:48.792Z,24.27
2019-04-03T16:30:19.615Z,111.43
2019-04-03T16:32:49.683Z,31.47
2019-04-03T16:35:19.697Z,48.13
2019-04-03T16:37:50.561Z,27.20
2019-04-03T16:40:21.360Z,59.83
2019-04-03T16:42:52.974Z,29.73
2019-04-03T16:45:23.013Z,35.83
2019-04-03T16:47:52.863Z,21.67
2019-04-03T16:50:26.155Z,60.70
2019-04-03T16:52:54.257Z,71.67
2019-04-03T16:55:24.390Z,59.43
2019-04-03T16:57:55.297Z,112.17
2019-04-03T17:00:25.394Z,36.80
2019-04-03T17:02:56.149Z,37.63
2019-04-03T17:05:26.850Z,25.67
2019-04-03T17:07:57.569Z,32.47
2019-04-03T17:10:27.579Z,27.10
2019-04-03T17:12:57.432Z,31.00
2019-04-03T17:15:27.311Z,27.43
2019-04-03T17:17:57.175Z,34.60
2019-04-03T17:20:27.306Z,35.27
2019-04-03T17:22:57.179Z,38.03
2019-04-03T17:25:30.117Z,42.00
2019-04-03T17:27:59.763Z,49.23
2019-04-03T17:30:29.992Z,31.70
2019-04-03T17:33:02.046Z,26.07
2019-04-03T17:35:31.381Z,33.13
2019-04-03T17:38:01.469Z,96.10
2019-04-03T17:40:31.475Z,81.87
2019-04-03T17:43:01.301Z,88.33
2019-04-03T17:45:31.198Z,46.67
2019-04-03T17:48:01.679Z,34.73
2019-04-03T17:50:31.825Z,83.13
2019-04-03T17:53:01.849Z,32.80
2019-04-03T17:55:31.750Z,48.13
2019-04-03T18:14:08.966Z,32.40
2019-04-03T18:16:41.393Z,38.30
2019-04-03T18:45:28.077Z,33.17
2019-04-03T18:58:17.981Z,28.07
2019-04-03T18:59:32.031Z,27.43
2019-04-03T19:14:01.614Z,26.13
2019-04-03T19:33:13.961Z,36.40
2019-04-03T19:36:06.868Z,22.87
2019-04-03T19:39:10.514Z,25.67
2019-04-03T19:41:47.289Z,25.80
2019-04-03T19:44:37.061Z,24.73
2019-04-03T19:47:12.895Z,23.97
2019-04-03T19:49:48.173Z,21.10
2019-04-03T19:52:21.137Z,26.73
2019-04-03T19:55:01.629Z,30.23
2019-04-03T20:01:07.665Z,438.57
2019-04-03T20:03:44.088Z,66.00
2019-04-03T20:06:22.485Z,145.87
2019-04-03T20:08:51.910Z,299.47
2019-04-03T20:12:03.027Z,191.53
2019-04-03T20:14:29.070Z,224.73
2019-04-03T20:17:05.802Z,85.07
2019-04-03T20:19:35.623Z,163.27
2019-04-03T20:22:07.764Z,58.23
2019-04-03T20:24:43.483Z,58.80
2019-04-03T20:27:17.246Z,26.77
2019-04-03T20:29:48.659Z,31.53
2019-04-03T20:32:20.868Z,28.47
2019-04-03T20:36:24.778Z,29.60
2019-04-03T20:37:56.795Z,29.83
2019-04-03T20:41:25.200Z,27.83
2019-04-03T20:44:38.684Z,29.70
2019-04-03T20:50:18.042Z,25.37
2019-04-03T20:52:45.771Z,26.27
2019-04-03T20:55:50.852Z,23.23
2019-04-03T20:58:55.783Z,31.23
2019-04-03T21:01:35.269Z,32.10
2019-04-03T21:04:36.513Z,29.87
2019-04-03T21:07:18.681Z,23.27
2019-04-03T21:25:26.863Z,29.53
2019-04-03T21:34:26.118Z,35.20
2019-04-03T21:40:17.591Z,28.13
2019-04-03T21:43:02.600Z,28.57
2019-04-03T21:45:32.434Z,27.13
2019-04-03T21:48:02.985Z,32.07
2019-04-03T21:50:32.771Z,31.67
2019-04-03T21:53:02.533Z,29.47
2019-04-03T21:55:34.639Z,30.47
2019-04-03T21:58:03.946Z,26.10
2019-04-03T22:00:58.644Z,27.83
2019-04-03T22:03:28.672Z,36.63
2019-04-03T22:05:58.411Z,31.33
2019-04-03T22:08:29.091Z,29.67
2019-04-03T22:10:59.686Z,28.83
2019-04-03T22:13:29.866Z,27.07
2019-04-03T22:15:59.711Z,32.17
2019-04-03T22:18:29.551Z,27.60
2019-04-03T22:21:01.569Z,27.10
2019-04-03T22:23:30.861Z,28.63
2019-04-03T22:26:00.683Z,30.17
2019-04-03T22:28:30.448Z,30.00
2019-04-03T22:31:00.282Z,27.53
2019-04-03T22:33:30.150Z,32.37
2019-04-03T22:36:01.316Z,28.37
2019-04-03T22:38:31.736Z,29.10
2019-04-03T22:41:01.576Z,33.83
2019-04-03T22:43:31.547Z,27.07
2019-04-03T22:46:01.473Z,30.40
2019-04-03T22:48:31.543Z,30.67
2019-04-03T22:51:01.400Z,28.30
2019-04-03T22:53:31.363Z,31.40
2019-04-03T22:56:01.187Z,32.37
2019-04-03T22:58:31.271Z,28.53
2019-04-03T23:01:01.107Z,30.10
2019-04-03T23:03:31.997Z,32.30
2019-04-03T23:06:02.706Z,30.80
2019-04-03T23:08:32.798Z,36.83
2019-04-03T23:11:02.737Z,26.53
2019-04-03T23:13:33.823Z,28.83
2019-04-03T23:16:04.244Z,26.60
2019-04-03T23:18:34.201Z,27.30
2019-04-03T23:21:04.067Z,26.37
2019-04-03T23:23:34.166Z,31.47
2019-04-03T23:26:04.243Z,25.50
2019-04-03T23:28:34.640Z,29.07
2019-04-03T23:31:04.565Z,27.10
2019-04-03T23:33:34.449Z,26.37
2019-04-03T23:36:04.314Z,31.70
2019-04-03T23:38:34.202Z,28.53
2019-04-03T23:41:04.198Z,35.47
2019-04-03T23:43:35.671Z,28.60
2019-04-03T23:46:05.532Z,30.13
2019-04-03T23:48:35.266Z,32.33
2019-04-03T23:51:05.135Z,39.67
2019-04-03T23:53:34.973Z,33.87
2019-04-03T23:56:07.128Z,29.53
2019-04-03T23:58:36.457Z,32.03
